createdAt,value
2019-02-21T00:01:52.510Z,71.70
2019-02-21T00:03:56.112Z,71.90
2019-02-21T00:05:59.944Z,71.80
2019-02-21T00:08:03.840Z,71.70
2019-02-21T00:10:08.083Z,71.60
2019-02-21T00:12:11.850Z,71.50
2019-02-21T00:14:15.629Z,71.90
2019-02-21T00:16:19.740Z,72.50
2019-02-21T00:18:23.582Z,73.30
2019-02-21T00:20:27.326Z,74.10
2019-02-21T00:22:31.039Z,74.70
2019-02-21T00:24:34.869Z,75.10
2019-02-21T00:26:38.680Z,76.30
2019-02-21T00:28:42.521Z,76.60
2019-02-21T00:30:46.148Z,77.50
2019-02-21T00:32:51.884Z,76.50
2019-02-21T00:34:55.540Z,76.30
2019-02-21T00:36:59.387Z,77.50
2019-02-21T00:39:03.597Z,77.10
2019-02-21T00:41:07.257Z,77.60
2019-02-21T00:43:11.052Z,77.10
2019-02-21T00:45:14.716Z,77.30
2019-02-21T00:47:18.511Z,77.40
2019-02-21T00:49:22.291Z,77.90
2019-02-21T00:51:25.918Z,78.30
2019-02-21T00:53:29.804Z,79.10
2019-02-21T00:55:33.521Z,79.40
2019-02-21T00:57:37.182Z,79.60
2019-02-21T00:59:40.894Z,80.40
2019-02-21T01:01:44.577Z,81.20
2019-02-21T01:03:48.383Z,82.70
2019-02-21T01:05:52.111Z,84.50
2019-02-21T01:07:56.117Z,85.80
2019-02-21T01:10:00.330Z,86.40
2019-02-21T01:12:04.336Z,86.60
2019-02-21T01:14:08.172Z,86.30
2019-02-21T01:16:11.979Z,86.30
2019-02-21T01:18:15.698Z,86.20
2019-02-21T01:20:19.493Z,85.80
2019-02-21T01:22:23.259Z,86.30
2019-02-21T01:24:27.135Z,85.90
2019-02-21T01:26:30.902Z,85.90
2019-02-21T01:28:34.648Z,85.70
2019-02-21T01:30:38.499Z,85.70
2019-02-21T01:32:42.192Z,85.40
2019-02-21T01:34:45.895Z,85.20
2019-02-21T01:36:49.650Z,85.10
2019-02-21T01:38:53.444Z,85.30
2019-02-21T01:40:57.299Z,84.80
2019-02-21T01:43:00.892Z,84.90
2019-02-21T01:45:06.375Z,86.10
2019-02-21T01:47:09.977Z,86.00
2019-02-21T01:49:13.724Z,86.60
2019-02-21T01:51:17.570Z,86.10
2019-02-21T01:53:21.325Z,86.20
2019-02-21T01:55:25.197Z,87.00
2019-02-21T01:57:28.885Z,87.60
2019-02-21T01:59:33.720Z,87.80
2019-02-21T02:01:37.448Z,87.30
2019-02-21T02:03:41.304Z,87.30
2019-02-21T02:05:45.192Z,87.90
2019-02-21T02:07:49.061Z,87.60
2019-02-21T02:09:52.865Z,87.50
2019-02-21T02:11:56.591Z,87.30
2019-02-21T02:14:00.272Z,86.90
2019-02-21T02:16:04.042Z,87.10
2019-02-21T02:18:07.915Z,87.10
2019-02-21T02:20:11.688Z,86.80
2019-02-21T02:22:15.677Z,87.00
2019-02-21T02:24:19.465Z,87.40
2019-02-21T02:26:23.501Z,86.90
2019-02-21T02:28:27.362Z,87.10
2019-02-21T02:30:32.186Z,86.80
2019-02-21T02:32:35.892Z,86.20
2019-02-21T02:34:39.715Z,86.60
2019-02-21T02:36:43.508Z,87.50
2019-02-21T02:38:47.325Z,87.30
2019-02-21T02:40:51.231Z,87.60
2019-02-21T02:42:55.099Z,87.30
2019-02-21T02:44:58.955Z,87.70
2019-02-21T02:47:03.770Z,88.00
2019-02-21T02:49:07.529Z,87.70
2019-02-21T02:51:11.309Z,87.90
2019-02-21T02:53:14.977Z,88.30
2019-02-21T02:55:18.615Z,88.50
2019-02-21T02:57:22.453Z,88.40
2019-02-21T02:59:26.238Z,89.60
2019-02-21T03:01:34.852Z,90.60
2019-02-21T03:03:35.699Z,90.40
2019-02-21T03:05:39.452Z,90.30
2019-02-21T03:07:43.234Z,91.80
2019-02-21T03:09:46.963Z,91.40
2019-02-21T03:11:51.873Z,91.60
2019-02-21T03:13:55.934Z,91.10
2019-02-21T03:15:59.693Z,91.10
2019-02-21T03:18:03.489Z,90.90
2019-02-21T03:20:09.280Z,91.20
2019-02-21T03:22:13.151Z,91.20
2019-02-21T03:24:16.833Z,91.30
2019-02-21T03:26:20.572Z,91.30
2019-02-21T03:28:24.195Z,91.30
2019-02-21T03:30:27.897Z,91.50
2019-02-21T03:32:31.565Z,91.50
2019-02-21T03:34:37.285Z,91.60
2019-02-21T03:36:40.941Z,91.60
2019-02-21T03:38:44.809Z,91.60
2019-02-21T03:40:48.586Z,91.70
2019-02-21T03:42:52.271Z,93.50
2019-02-21T03:44:55.936Z,93.60
2019-02-21T03:46:59.724Z,94.50
2019-02-21T03:49:03.478Z,96.20
2019-02-21T03:51:07.305Z,96.40
2019-02-21T03:53:11.059Z,96.70
2019-02-21T03:55:14.790Z,96.50
2019-02-21T03:57:18.613Z,96.70
2019-02-21T03:59:22.488Z,96.60
2019-02-21T04:01:26.297Z,96.30
2019-02-21T04:03:30.170Z,96.30
2019-02-21T04:05:34.184Z,96.30
2019-02-21T04:07:38.249Z,96.00
2019-02-21T04:09:42.131Z,95.90
2019-02-21T04:11:45.892Z,95.80
2019-02-21T04:13:49.637Z,95.40
2019-02-21T04:15:53.532Z,95.50
2019-02-21T04:17:57.297Z,95.70
2019-02-21T04:20:01.194Z,95.20
2019-02-21T04:22:06.114Z,95.10
2019-02-21T04:24:09.924Z,95.00
2019-02-21T04:26:13.691Z,95.10
2019-02-21T04:28:17.399Z,95.10
2019-02-21T04:30:21.130Z,95.20
2019-02-21T04:32:24.830Z,95.40
2019-02-21T04:34:28.853Z,95.30
2019-02-21T04:36:32.623Z,95.70
2019-02-21T04:38:36.524Z,95.30
2019-02-21T04:40:40.335Z,95.20
2019-02-21T04:42:44.198Z,95.70
2019-02-21T04:44:47.959Z,98.70
2019-02-21T04:46:51.689Z,99.90
2019-02-21T04:48:55.426Z,99.90
2019-02-21T04:50:59.156Z,99.90
2019-02-21T04:53:02.954Z,99.90
2019-02-21T04:55:06.818Z,99.90
2019-02-21T04:57:10.493Z,99.90
2019-02-21T04:59:14.201Z,99.90
2019-02-21T05:01:18.013Z,99.90
2019-02-21T05:03:21.797Z,99.90
2019-02-21T05:05:25.414Z,99.90
2019-02-21T05:07:29.055Z,99.90
2019-02-21T05:09:32.848Z,99.90
2019-02-21T05:11:43.543Z,99.90
2019-02-21T05:13:47.652Z,99.90
2019-02-21T05:15:51.410Z,99.90
2019-02-21T05:17:55.106Z,99.90
2019-02-21T05:19:58.978Z,99.90
2019-02-21T05:22:03.331Z,99.90
2019-02-21T05:24:07.331Z,99.90
2019-02-21T05:26:12.941Z,99.90
2019-02-21T05:28:27.050Z,99.90
2019-02-21T05:30:30.886Z,99.90
2019-02-21T05:32:42.899Z,99.90
2019-02-21T05:34:51.253Z,99.90
2019-02-21T05:37:02.341Z,99.90
2019-02-21T05:39:08.086Z,99.90
2019-02-21T05:41:19.594Z,99.90
2019-02-21T05:43:31.670Z,99.90
2019-02-21T05:45:40.118Z,99.90
2019-02-21T05:47:48.233Z,99.90
2019-02-21T05:50:08.914Z,99.90
2019-02-21T05:52:14.293Z,99.90
2019-02-21T05:54:29.058Z,99.90
2019-02-21T05:56:37.421Z,99.90
2019-02-21T05:58:49.429Z,99.90
2019-02-21T06:01:03.961Z,99.90
2019-02-21T06:03:24.825Z,99.90
2019-02-21T06:05:36.517Z,99.90
2019-02-21T06:07:53.619Z,99.90
2019-02-21T06:09:59.324Z,99.90
2019-02-21T06:12:04.852Z,99.90
2019-02-21T06:14:26.464Z,99.90
2019-02-21T06:16:33.008Z,99.90
2019-02-21T06:18:51.187Z,99.90
2019-02-21T06:21:10.992Z,99.90
2019-02-21T06:23:32.862Z,99.90
2019-02-21T06:25:53.003Z,99.90
2019-02-21T06:27:51.523Z,99.90
2019-02-21T06:30:00.604Z,99.90
2019-02-21T06:32:13.800Z,99.90
2019-02-21T06:34:10.385Z,99.90
2019-02-21T06:36:14.586Z,99.90
2019-02-21T06:38:18.420Z,99.90
2019-02-21T06:40:22.633Z,99.90
2019-02-21T06:42:26.547Z,99.90
2019-02-21T06:44:30.540Z,99.90
2019-02-21T06:46:34.639Z,99.90
2019-02-21T06:48:38.744Z,99.90
2019-02-21T06:50:42.960Z,99.90
2019-02-21T06:52:47.083Z,99.90
2019-02-21T06:54:51.262Z,99.90
2019-02-21T06:56:55.397Z,99.90
2019-02-21T06:59:00.543Z,99.90
2019-02-21T07:01:04.530Z,99.90
2019-02-21T07:03:15.940Z,99.90
2019-02-21T07:05:14.506Z,99.90
2019-02-21T07:07:18.698Z,99.90
2019-02-21T07:09:22.900Z,99.90
2019-02-21T07:11:27.129Z,99.90
2019-02-21T07:13:31.529Z,99.90
2019-02-21T07:15:35.795Z,99.90
2019-02-21T07:17:48.800Z,99.90
2019-02-21T07:19:45.640Z,99.90
2019-02-21T07:21:49.522Z,99.90
2019-02-21T07:23:53.611Z,99.90
2019-02-21T07:25:59.146Z,99.90
2019-02-21T07:28:11.185Z,99.90
2019-02-21T07:30:19.555Z,99.90
2019-02-21T07:32:16.044Z,99.90
2019-02-21T07:34:20.070Z,99.90
2019-02-21T07:36:24.068Z,99.90
2019-02-21T07:38:28.279Z,99.90
2019-02-21T07:40:32.536Z,99.90
2019-02-21T07:42:36.609Z,99.90
2019-02-21T07:44:40.697Z,99.90
2019-02-21T07:46:46.338Z,99.90
2019-02-21T07:48:50.366Z,99.90
2019-02-21T07:50:54.595Z,99.90
2019-02-21T07:53:02.565Z,99.90
2019-02-21T07:55:05.277Z,99.90
2019-02-21T07:57:10.060Z,99.90
2019-02-21T07:59:14.694Z,99.90
2019-02-21T08:01:18.725Z,99.90
2019-02-21T08:03:30.324Z,99.90
2019-02-21T08:05:28.342Z,99.90
2019-02-21T08:07:32.764Z,99.90
2019-02-21T08:09:36.883Z,99.90
2019-02-21T08:11:41.174Z,99.90
2019-02-21T08:13:45.370Z,99.90
2019-02-21T08:15:49.481Z,99.90
2019-02-21T08:17:53.732Z,99.90
2019-02-21T08:20:08.035Z,99.90
2019-02-21T08:22:04.730Z,99.90
2019-02-21T08:24:08.828Z,99.90
2019-02-21T08:26:13.199Z,99.90
2019-02-21T08:28:17.206Z,99.90
2019-02-21T08:30:21.416Z,99.90
2019-02-21T08:32:27.065Z,99.90
2019-02-21T08:34:32.599Z,99.90
2019-02-21T08:36:36.868Z,99.90
2019-02-21T08:38:41.044Z,99.90
2019-02-21T08:40:45.131Z,99.90
2019-02-21T08:42:49.282Z,99.90
2019-02-21T08:44:53.359Z,99.90
2019-02-21T08:46:57.561Z,99.90
2019-02-21T08:49:01.583Z,99.90
2019-02-21T08:51:06.797Z,99.90
2019-02-21T08:53:12.967Z,99.90
2019-02-21T08:55:16.701Z,99.90
2019-02-21T08:57:21.434Z,99.90
2019-02-21T08:59:25.592Z,99.90
2019-02-21T09:01:29.612Z,99.90
2019-02-21T09:03:33.865Z,99.90
2019-02-21T09:05:37.896Z,99.90
2019-02-21T09:07:41.999Z,99.90
2019-02-21T09:09:46.125Z,99.90
2019-02-21T09:11:50.228Z,99.90
2019-02-21T09:13:55.835Z,99.90
2019-02-21T09:15:59.987Z,99.90
2019-02-21T09:18:04.005Z,99.90
2019-02-21T09:20:09.522Z,99.90
2019-02-21T09:22:13.515Z,99.90
2019-02-21T09:24:35.127Z,99.90
2019-02-21T09:26:23.190Z,99.90
2019-02-21T09:28:27.287Z,99.90
2019-02-21T09:30:31.790Z,99.90
2019-02-21T09:32:35.817Z,99.90
2019-02-21T09:34:39.957Z,99.90
2019-02-21T09:36:43.938Z,99.90
2019-02-21T09:38:48.009Z,99.90
2019-02-21T09:40:52.118Z,99.90
2019-02-21T09:42:56.400Z,99.90
2019-02-21T09:45:00.588Z,99.90
2019-02-21T09:47:04.571Z,99.90
2019-02-21T09:49:08.447Z,99.90
2019-02-21T09:51:12.583Z,99.90
2019-02-21T09:53:16.677Z,96.50
2019-02-21T09:55:21.180Z,93.90
2019-02-21T09:57:25.519Z,91.50
2019-02-21T09:59:30.027Z,89.20
2019-02-21T10:01:34.422Z,88.70
2019-02-21T10:03:38.442Z,87.20
2019-02-21T10:05:42.560Z,87.60
2019-02-21T10:07:46.634Z,87.10
2019-02-21T10:09:50.749Z,87.30
2019-02-21T10:11:54.868Z,89.70
2019-02-21T10:13:59.130Z,91.20
2019-02-21T10:16:04.849Z,92.00
2019-02-21T10:18:08.841Z,92.20
2019-02-21T10:20:15.184Z,93.50
2019-02-21T10:22:19.322Z,93.90
2019-02-21T10:24:23.757Z,93.90
2019-02-21T10:26:27.729Z,94.40
2019-02-21T10:28:32.556Z,95.30
2019-02-21T10:30:36.650Z,94.00
2019-02-21T10:32:40.773Z,94.10
2019-02-21T10:34:44.765Z,93.80
2019-02-21T10:36:48.758Z,95.00
2019-02-21T10:38:52.669Z,94.20
2019-02-21T10:40:56.778Z,91.00
2019-02-21T10:43:00.679Z,87.00
2019-02-21T10:45:06.218Z,85.10
2019-02-21T10:47:10.235Z,86.10
2019-02-21T10:49:14.231Z,76.20
2019-02-21T10:51:18.240Z,61.70
2019-02-21T10:53:22.257Z,60.20
2019-02-21T10:55:26.118Z,54.00
2019-02-21T10:57:30.049Z,52.00
2019-02-21T10:59:33.956Z,53.80
2019-02-21T11:01:37.952Z,53.50
2019-02-21T11:03:41.875Z,54.50
2019-02-21T11:05:45.975Z,44.00
2019-02-21T11:07:49.773Z,41.50
2019-02-21T11:09:53.630Z,41.70
2019-02-21T11:11:57.477Z,42.30
2019-02-21T11:14:01.374Z,41.80
2019-02-21T11:16:05.274Z,41.80
2019-02-21T11:18:09.356Z,43.50
2019-02-21T11:20:15.819Z,49.10
2019-02-21T11:22:19.875Z,43.60
2019-02-21T11:24:24.064Z,37.70
2019-02-21T11:26:28.111Z,35.90
2019-02-21T11:28:33.046Z,32.90
2019-02-21T11:30:36.971Z,33.30
2019-02-21T11:32:40.903Z,30.50
2019-02-21T11:34:44.915Z,31.50
2019-02-21T11:36:48.902Z,27.40
2019-02-21T11:38:52.817Z,26.50
2019-02-21T11:40:56.693Z,24.30
2019-02-21T11:43:02.688Z,25.00
2019-02-21T11:45:10.499Z,22.30
2019-02-21T11:47:14.452Z,20.60
2019-02-21T11:49:18.499Z,19.80
2019-02-21T11:51:22.477Z,19.00
2019-02-21T11:53:26.392Z,18.60
2019-02-21T11:55:30.381Z,16.20
2019-02-21T11:57:34.257Z,14.50
2019-02-21T11:59:38.273Z,12.70
2019-02-21T12:01:42.400Z,11.90
2019-02-21T12:03:46.509Z,13.20
2019-02-21T12:05:50.434Z,14.10
2019-02-21T12:07:54.190Z,12.10
2019-02-21T12:09:58.082Z,12.20
2019-02-21T12:12:02.034Z,10.80
2019-02-21T12:14:06.133Z,8.40
2019-02-21T12:16:10.231Z,9.90
2019-02-21T12:18:14.255Z,7.70
2019-02-21T12:20:19.553Z,7.00
2019-02-21T12:22:23.539Z,7.00
2019-02-21T12:24:27.496Z,5.80
2019-02-21T12:26:31.490Z,7.60
2019-02-21T12:28:35.546Z,7.30
2019-02-21T12:30:39.621Z,9.30
2019-02-21T12:32:43.735Z,8.90
2019-02-21T12:34:47.889Z,8.50
2019-02-21T12:36:52.533Z,10.10
2019-02-21T12:38:56.322Z,9.70
2019-02-21T12:41:02.299Z,8.80
2019-02-21T12:43:05.929Z,9.40
2019-02-21T12:45:12.771Z,7.90
2019-02-21T12:47:16.723Z,8.70
2019-02-21T12:49:20.935Z,9.80
2019-02-21T12:51:24.785Z,9.80
2019-02-21T12:53:29.093Z,10.20
2019-02-21T12:55:33.213Z,9.90
2019-02-21T12:57:37.537Z,10.20
2019-02-21T12:59:41.757Z,10.20
2019-02-21T13:01:45.941Z,11.80
2019-02-21T13:03:49.944Z,12.10
2019-02-21T13:05:54.139Z,10.70
2019-02-21T13:07:58.421Z,9.10
2019-02-21T13:10:02.555Z,10.10
2019-02-21T13:12:06.766Z,10.40
2019-02-21T13:14:10.976Z,10.90
2019-02-21T13:16:14.973Z,12.00
2019-02-21T13:18:19.197Z,11.80
2019-02-21T13:20:23.209Z,11.90
2019-02-21T13:22:27.422Z,13.50
2019-02-21T13:24:31.418Z,13.50
2019-02-21T13:26:35.473Z,11.90
2019-02-21T13:28:39.473Z,10.60
2019-02-21T13:30:44.358Z,9.90
2019-02-21T13:32:48.469Z,9.50
2019-02-21T13:34:52.454Z,9.90
2019-02-21T13:36:56.438Z,9.60
2019-02-21T13:39:01.717Z,10.00
2019-02-21T13:41:05.436Z,10.20
2019-02-21T13:43:09.269Z,10.80
2019-02-21T13:45:17.187Z,11.50
2019-02-21T13:47:19.870Z,13.10
2019-02-21T13:49:23.613Z,12.40
2019-02-21T13:51:27.285Z,12.40
2019-02-21T13:53:31.766Z,13.90
2019-02-21T13:55:35.507Z,13.50
2019-02-21T13:57:39.250Z,14.30
2019-02-21T13:59:42.961Z,13.90
2019-02-21T14:01:46.622Z,13.60
2019-02-21T14:03:52.353Z,14.00
2019-02-21T14:06:03.250Z,13.40
2019-02-21T14:08:01.332Z,13.80
2019-02-21T14:10:07.850Z,14.20
2019-02-21T14:12:11.622Z,14.30
2019-02-21T14:14:15.452Z,14.20
2019-02-21T14:16:19.448Z,14.70
2019-02-21T14:18:24.524Z,14.40
2019-02-21T14:20:28.465Z,14.50
2019-02-21T14:22:32.328Z,13.10
2019-02-21T14:24:37.319Z,13.40
2019-02-21T14:26:41.241Z,14.30
2019-02-21T14:28:45.068Z,14.90
2019-02-21T14:30:48.881Z,16.40
2019-02-21T14:32:52.719Z,14.70
2019-02-21T14:34:56.525Z,14.40
2019-02-21T14:37:01.226Z,15.80
2019-02-21T14:39:05.904Z,14.00
2019-02-21T14:41:09.719Z,14.40
2019-02-21T14:43:16.820Z,13.40
2019-02-21T14:45:24.429Z,13.80
2019-02-21T14:47:28.087Z,14.50
2019-02-21T14:49:31.886Z,14.50
2019-02-21T14:51:35.707Z,14.50
2019-02-21T14:53:39.571Z,13.40
2019-02-21T14:55:43.341Z,14.80
2019-02-21T14:57:47.183Z,14.00
2019-02-21T14:59:50.910Z,13.50
2019-02-21T15:01:54.697Z,12.90
2019-02-21T15:03:58.571Z,12.50
2019-02-21T15:06:02.373Z,10.20
2019-02-21T15:08:06.183Z,10.60
2019-02-21T15:10:10.950Z,11.10
2019-02-21T15:12:14.650Z,11.10
2019-02-21T15:14:18.499Z,10.30
2019-02-21T15:16:22.194Z,10.20
2019-02-21T15:18:25.997Z,10.40
2019-02-21T15:20:36.775Z,9.30
2019-02-21T15:22:35.134Z,8.30
2019-02-21T15:24:38.907Z,8.30
2019-02-21T15:26:42.574Z,8.00
2019-02-21T15:28:46.412Z,8.20
2019-02-21T15:30:50.369Z,8.40
2019-02-21T15:32:54.162Z,7.90
2019-02-21T15:34:57.912Z,7.80
2019-02-21T15:37:01.588Z,9.20
2019-02-21T15:39:06.215Z,11.00
2019-02-21T15:41:10.020Z,10.60
2019-02-21T15:43:13.773Z,10.80
2019-02-21T15:45:23.617Z,10.70
2019-02-21T15:47:25.852Z,10.90
2019-02-21T15:49:29.683Z,12.10
2019-02-21T15:51:36.869Z,11.80
2019-02-21T15:53:42.804Z,12.40
2019-02-21T15:55:46.577Z,12.60
2019-02-21T15:58:00.549Z,13.10
2019-02-21T15:59:56.730Z,13.60
2019-02-21T16:02:01.674Z,13.10
2019-02-21T16:04:05.502Z,13.70
2019-02-21T16:06:09.798Z,14.00
2019-02-21T16:08:14.441Z,14.30
2019-02-21T16:10:27.436Z,14.60
2019-02-21T16:12:31.265Z,14.70
2019-02-21T16:14:37.615Z,15.00
2019-02-21T16:16:40.677Z,14.30
2019-02-21T16:18:44.624Z,14.50
2019-02-21T16:20:49.023Z,15.80
2019-02-21T16:22:52.831Z,15.80
2019-02-21T16:24:58.915Z,14.30
2019-02-21T16:27:03.036Z,15.30
2019-02-21T16:29:06.923Z,16.10
2019-02-21T16:31:10.929Z,16.30
2019-02-21T16:33:14.827Z,16.30
2019-02-21T16:35:18.575Z,16.80
2019-02-21T16:37:22.458Z,16.80
2019-02-21T16:39:26.301Z,16.80
2019-02-21T16:41:36.276Z,17.20
2019-02-21T16:43:36.736Z,17.50
2019-02-21T16:45:46.160Z,17.60
2019-02-21T16:47:46.102Z,18.40
2019-02-21T16:49:50.011Z,18.70
2019-02-21T16:51:53.811Z,18.90
2019-02-21T16:53:57.514Z,18.90
2019-02-21T16:56:01.309Z,19.30
2019-02-21T16:58:05.085Z,19.80
2019-02-21T17:00:17.291Z,20.40
2019-02-21T17:02:21.280Z,20.50
2019-02-21T17:04:25.215Z,21.40
2019-02-21T17:06:28.861Z,22.00
2019-02-21T17:08:32.684Z,22.10
2019-02-21T17:10:36.580Z,22.20
2019-02-21T17:12:40.417Z,22.90
2019-02-21T17:14:44.158Z,23.40
2019-02-21T17:16:47.979Z,23.60
2019-02-21T17:18:59.320Z,23.90
2019-02-21T17:21:03.271Z,24.40
2019-02-21T17:23:07.100Z,24.50
2019-02-21T17:25:12.970Z,24.70
2019-02-21T17:27:17.158Z,24.80
2019-02-21T17:29:20.877Z,26.70
2019-02-21T17:31:24.663Z,27.70
2019-02-21T17:33:28.332Z,28.50
2019-02-21T17:35:32.754Z,28.40
2019-02-21T17:37:36.734Z,28.40
2019-02-21T17:39:40.469Z,28.60
2019-02-21T17:41:44.873Z,28.60
2019-02-21T17:43:48.586Z,29.10
2019-02-21T17:45:53.124Z,29.90
2019-02-21T17:47:57.074Z,30.30
2019-02-21T17:50:00.839Z,31.00
2019-02-21T17:52:04.711Z,31.30
2019-02-21T17:54:08.547Z,32.30
2019-02-21T17:56:12.248Z,33.40
2019-02-21T17:58:17.419Z,33.30
2019-02-21T18:00:37.075Z,33.80
2019-02-21T18:02:40.852Z,34.60
2019-02-21T18:04:44.680Z,34.60
2019-02-21T18:06:48.931Z,34.60
2019-02-21T18:08:55.026Z,34.00
2019-02-21T18:10:58.222Z,33.90
2019-02-21T18:13:02.068Z,34.00
2019-02-21T18:15:07.952Z,35.60
2019-02-21T18:17:11.743Z,35.50
2019-02-21T18:19:15.577Z,35.80
2019-02-21T18:21:19.309Z,36.00
2019-02-21T18:23:23.075Z,36.20
2019-02-21T18:25:32.581Z,36.40
2019-02-21T18:27:36.266Z,36.90
2019-02-21T18:29:40.150Z,36.80
2019-02-21T18:31:44.728Z,37.90
2019-02-21T18:33:49.425Z,37.90
2019-02-21T18:35:53.941Z,37.90
2019-02-21T18:37:57.744Z,39.10
2019-02-21T18:40:01.813Z,38.40
2019-02-21T18:42:05.990Z,38.60
2019-02-21T18:44:10.461Z,38.50
2019-02-21T18:46:14.100Z,39.20
2019-02-21T18:48:17.856Z,39.50
2019-02-21T18:50:21.695Z,40.10
2019-02-21T18:52:25.605Z,41.50
2019-02-21T18:54:30.157Z,41.10
2019-02-21T18:56:33.955Z,41.20
2019-02-21T18:58:38.184Z,41.20
2019-02-21T19:00:42.813Z,41.00
2019-02-21T19:02:47.207Z,40.60
2019-02-21T19:04:50.915Z,41.10
2019-02-21T19:06:54.631Z,42.10
2019-02-21T19:08:58.501Z,42.80
2019-02-21T19:11:02.263Z,42.80
2019-02-21T19:13:07.826Z,42.40
2019-02-21T19:15:12.871Z,42.90
2019-02-21T19:17:16.837Z,42.70
2019-02-21T19:19:21.232Z,43.50
2019-02-21T19:21:25.068Z,45.50
2019-02-21T19:23:28.943Z,46.60
2019-02-21T19:25:32.896Z,46.20
2019-02-21T19:27:37.623Z,45.80
2019-02-21T19:29:41.600Z,47.40
2019-02-21T19:31:45.456Z,47.50
2019-02-21T19:33:49.340Z,48.30
2019-02-21T19:35:53.250Z,48.80
2019-02-21T19:37:57.017Z,49.70
2019-02-21T19:40:00.855Z,49.60
2019-02-21T19:42:04.697Z,50.40
2019-02-21T19:44:09.375Z,50.80
2019-02-21T19:46:13.467Z,51.40
2019-02-21T19:48:17.342Z,51.40
2019-02-21T19:50:21.340Z,51.80
2019-02-21T19:52:25.184Z,51.80
2019-02-21T19:54:28.997Z,53.00
2019-02-21T19:56:32.969Z,56.30
2019-02-21T19:58:36.837Z,56.60
2019-02-21T20:00:41.289Z,57.70
2019-02-21T20:02:45.013Z,58.00
2019-02-21T20:04:48.811Z,58.10
2019-02-21T20:06:52.695Z,57.70
2019-02-21T20:08:56.462Z,57.50
2019-02-21T20:11:01.320Z,56.60
2019-02-21T20:13:07.061Z,58.40
2019-02-21T20:15:11.840Z,59.50
2019-02-21T20:17:15.662Z,59.90
2019-02-21T20:19:20.514Z,60.50
2019-02-21T20:21:24.160Z,60.30
2019-02-21T20:23:27.980Z,61.30
2019-02-21T20:25:31.780Z,62.10
2019-02-21T20:27:36.570Z,62.50
2019-02-21T20:29:40.215Z,62.80
2019-02-21T20:31:43.987Z,61.90
2019-02-21T20:33:47.650Z,62.20
2019-02-21T20:35:51.490Z,62.60
2019-02-21T20:37:55.135Z,62.60
2019-02-21T20:39:59.032Z,64.60
2019-02-21T20:42:02.622Z,64.60
2019-02-21T20:44:06.363Z,66.30
2019-02-21T20:46:10.187Z,66.50
2019-02-21T20:48:13.962Z,66.00
2019-02-21T20:50:17.984Z,66.20
2019-02-21T20:52:21.907Z,67.00
2019-02-21T20:54:25.634Z,68.00
2019-02-21T20:56:29.533Z,68.60
2019-02-21T20:58:33.282Z,69.80
2019-02-21T21:00:37.236Z,70.10
2019-02-21T21:02:41.227Z,70.90
2019-02-21T21:04:45.110Z,70.80
2019-02-21T21:06:49.009Z,72.30
2019-02-21T21:08:52.849Z,72.60
2019-02-21T21:10:57.129Z,73.10
2019-02-21T21:13:01.067Z,72.80
2019-02-21T21:15:06.133Z,73.70
2019-02-21T21:17:10.303Z,73.40
2019-02-21T21:19:14.496Z,73.60
2019-02-21T21:21:18.394Z,77.30
2019-02-21T21:23:22.390Z,78.40
2019-02-21T21:25:26.229Z,78.70
2019-02-21T21:27:29.991Z,79.20
2019-02-21T21:29:33.720Z,79.60
2019-02-21T21:31:37.487Z,80.90
2019-02-21T21:33:44.761Z,80.00
2019-02-21T21:35:48.360Z,80.60
2019-02-21T21:37:52.062Z,84.00
2019-02-21T21:39:55.937Z,83.00
2019-02-21T21:41:59.662Z,83.30
2019-02-21T21:44:03.773Z,83.30
2019-02-21T21:46:07.566Z,84.10
2019-02-21T21:48:11.303Z,82.80
2019-02-21T21:50:20.020Z,84.00
2019-02-21T21:52:23.793Z,83.60
2019-02-21T21:54:27.553Z,83.00
2019-02-21T21:56:31.292Z,83.00
2019-02-21T21:58:35.049Z,83.30
2019-02-21T22:00:38.783Z,83.20
2019-02-21T22:02:42.546Z,83.20
2019-02-21T22:04:46.202Z,83.40
2019-02-21T22:06:50.017Z,83.80
2019-02-21T22:09:04.228Z,83.00
2019-02-21T22:10:59.078Z,82.50
2019-02-21T22:13:02.883Z,81.90
2019-02-21T22:15:12.169Z,82.10
2019-02-21T22:17:15.827Z,81.70
2019-02-21T22:19:19.628Z,81.60
2019-02-21T22:21:23.357Z,80.80
2019-02-21T22:23:27.238Z,80.60
2019-02-21T22:25:32.177Z,81.00
2019-02-21T22:27:36.973Z,80.80
2019-02-21T22:29:40.572Z,80.80
2019-02-21T22:31:44.244Z,80.60
2019-02-21T22:33:48.000Z,80.30
2019-02-21T22:35:51.819Z,79.90
2019-02-21T22:37:55.578Z,79.80
2019-02-21T22:39:59.327Z,80.20
2019-02-21T22:42:03.087Z,79.90
2019-02-21T22:44:06.983Z,80.00
2019-02-21T22:46:10.790Z,79.80
2019-02-21T22:48:14.488Z,80.70
2019-02-21T22:50:19.385Z,80.70
2019-02-21T22:52:23.107Z,80.70
2019-02-21T22:54:27.018Z,79.90
2019-02-21T22:56:30.822Z,79.80
2019-02-21T22:58:44.652Z,79.70
2019-02-21T23:00:50.482Z,79.70
2019-02-21T23:02:54.480Z,79.80
2019-02-21T23:05:16.513Z,79.90
2019-02-21T23:07:26.195Z,80.70
2019-02-21T23:09:30.319Z,80.40
2019-02-21T23:11:34.052Z,80.40
2019-02-21T23:13:37.923Z,80.80
2019-02-21T23:15:41.689Z,81.40
2019-02-21T23:17:46.510Z,80.80
2019-02-21T23:19:50.344Z,81.60
2019-02-21T23:21:54.210Z,81.20
2019-02-21T23:23:57.999Z,81.10
2019-02-21T23:26:01.795Z,81.10
2019-02-21T23:28:05.456Z,81.80
2019-02-21T23:30:10.450Z,81.70
2019-02-21T23:32:14.235Z,82.60
2019-02-21T23:34:22.105Z,81.90
2019-02-21T23:36:25.825Z,81.90
2019-02-21T23:38:29.621Z,81.70
2019-02-21T23:40:33.473Z,81.70
2019-02-21T23:42:37.360Z,82.20
2019-02-21T23:44:41.365Z,81.90
2019-02-21T23:46:45.368Z,82.20
2019-02-21T23:48:49.239Z,82.30
2019-02-21T23:50:53.037Z,81.80
2019-02-21T23:52:56.959Z,81.60
2019-02-21T23:55:00.743Z,82.30
2019-02-21T23:57:04.735Z,82.50
2019-02-21T23:59:08.465Z,82.50
